Time;durP1;ratioP1;P1;durP2;ratioP2;P2;SDS_P1;SDS_P2;PMS_P1;PMS_P2;Temp;Humidity;BMP_temperature;BMP_pressure;BME280_temperature;BME280_humidity;BME280_pressure;Samples;Min_cycle;Max_cycle;Signal;HPM_P1;HPM_P2
2021/12/14 00:00:01;;;;;;;2.63;2.42;;;;;;;;;;5014128;28;20557;-87
2021/12/14 00:02:29;;;;;;;2.17;1.98;;;;;;;;;;5013982;28;20203;-88
2021/12/14 00:04:59;;;;;;;2.20;2.00;;;;;;;;;;5013445;28;20301;-87
2021/12/14 00:07:28;;;;;;;2.40;2.20;;;;;;;;;;5013149;28;20777;-87
2021/12/14 00:10:11;;;;;;;3.33;3.03;;;;;;;;;;5014196;28;20637;-87
2021/12/14 00:12:53;;;;;;;3.78;3.30;;;;;;;;;;5013538;28;20227;-87
2021/12/14 00:15:21;;;;;;;3.03;2.75;;;;;;;;;;5013919;28;20266;-85
2021/12/14 00:17:53;;;;;;;3.20;2.90;;;;;;;;;;5013740;28;20210;-85
2021/12/14 00:20:29;;;;;;;3.65;3.35;;;;;;;;;;5013084;28;20195;-88
2021/12/14 00:25:53;;;;;;;4.20;3.78;;;;;;;;;;5013129;28;20230;-87
2021/12/14 00:28:26;;;;;;;4.30;3.90;;;;;;;;;;5013552;28;20183;-88
2021/12/14 00:30:57;;;;;;;3.00;2.80;;;;;;;;;;5012861;28;20194;-88
2021/12/14 00:33:30;;;;;;;3.40;3.10;;;;;;;;;;5013113;28;20637;-88
2021/12/14 00:35:58;;;;;;;3.75;3.45;;;;;;;;;;5012972;28;20215;-87
2021/12/14 00:38:26;;;;;;;4.50;3.55;;;;;;;;;;5013348;28;20249;-86
2021/12/14 00:41:05;;;;;;;4.50;3.65;;;;;;;;;;5013372;28;20194;-87
2021/12/14 00:43:33;;;;;;;3.97;3.55;;;;;;;;;;5014043;28;20671;-88
2021/12/14 00:46:02;;;;;;;3.30;3.00;;;;;;;;;;5013642;28;20223;-88
2021/12/14 00:48:29;;;;;;;4.13;3.40;;;;;;;;;;5012171;28;20206;-87
2021/12/14 00:51:01;;;;;;;4.93;4.45;;;;;;;;;;5012322;28;20210;-87
2021/12/14 00:53:30;;;;;;;3.97;3.58;;;;;;;;;;5013452;28;20197;-87
2021/12/14 00:56:04;;;;;;;3.45;3.15;;;;;;;;;;5013390;28;20226;-88
2021/12/14 00:58:55;;;;;;;3.67;3.33;;;;;;;;;;5013834;28;20687;-86
2021/12/14 01:01:27;;;;;;;4.50;3.80;;;;;;;;;;5014556;28;20198;-88
2021/12/14 01:03:59;;;;;;;3.75;3.45;;;;;;;;;;5016363;28;20637;-88
2021/12/14 01:06:31;;;;;;;3.60;3.30;;;;;;;;;;5015964;28;20227;-89
2021/12/14 01:09:01;;;;;;;3.40;3.03;;;;;;;;;;5015974;28;20191;-88
2021/12/14 01:11:37;;;;;;;3.30;3.00;;;;;;;;;;5016018;28;20221;-87
2021/12/14 01:14:11;;;;;;;3.97;3.58;;;;;;;;;;5015615;28;20614;-88
2021/12/14 01:16:52;;;;;;;3.80;3.50;;;;;;;;;;5015605;28;20214;-87
2021/12/14 01:19:26;;;;;;;3.17;2.92;;;;;;;;;;5015841;28;20195;-88
2021/12/14 01:25:02;;;;;;;3.40;3.10;;;;;;;;;;5014689;28;20246;-86
2021/12/14 01:27:40;;;;;;;3.88;3.47;;;;;;;;;;5015185;28;20229;-88
2021/12/14 01:30:28;;;;;;;3.70;3.40;;;;;;;;;;5015011;28;20541;-88
2021/12/14 01:33:00;;;;;;;4.10;3.60;;;;;;;;;;5015530;28;20619;-86
2021/12/14 01:35:32;;;;;;;3.13;2.83;;;;;;;;;;5015478;28;20274;-89
2021/12/14 01:38:15;;;;;;;3.80;3.45;;;;;;;;;;5015443;28;20195;-87
2021/12/14 01:40:53;;;;;;;4.15;3.53;;;;;;;;;;5016014;28;20293;-86
2021/12/14 01:43:29;;;;;;;3.92;3.58;;;;;;;;;;5015755;28;20214;-86
2021/12/14 01:45:59;;;;;;;4.80;4.38;;;;;;;;;;5015660;28;20230;-88
2021/12/14 01:48:27;;;;;;;4.35;3.95;;;;;;;;;;5015762;28;20608;-86
2021/12/14 01:50:59;;;;;;;4.82;4.43;;;;;;;;;;5015345;28;20206;-85
2021/12/14 01:53:26;;;;;;;3.88;3.55;;;;;;;;;;5015651;28;20179;-88
2021/12/14 01:55:59;;;;;;;8.02;3.88;;;;;;;;;;5016022;28;20744;-87
2021/12/14 01:58:36;;;;;;;5.93;5.25;;;;;;;;;;5015660;28;20187;-87
2021/12/14 02:01:12;;;;;;;4.53;3.63;;;;;;;;;;5015560;28;20254;-89
2021/12/14 02:03:44;;;;;;;3.15;2.95;;;;;;;;;;5015800;28;20187;-88
2021/12/14 02:06:16;;;;;;;3.92;3.63;;;;;;;;;;5016008;28;20229;-88
2021/12/14 02:08:45;;;;;;;4.00;3.70;;;;;;;;;;5016844;28;20196;-89
2021/12/14 02:11:13;;;;;;;4.78;4.10;;;;;;;;;;5016313;28;20183;-87
2021/12/14 02:13:47;;;;;;;3.50;3.20;;;;;;;;;;5016226;28;20203;-88
2021/12/14 02:16:18;;;;;;;3.92;3.53;;;;;;;;;;5016497;28;20230;-88
2021/12/14 02:18:49;;;;;;;3.78;3.47;;;;;;;;;;5016984;28;20210;-89
2021/12/14 02:21:18;;;;;;;4.97;4.47;;;;;;;;;;5016333;28;20661;-87
2021/12/14 02:23:50;;;;;;;5.57;5.15;;;;;;;;;;5017186;28;20183;-90
2021/12/14 02:26:20;;;;;;;4.93;4.47;;;;;;;;;;5016967;28;20237;-89
2021/12/14 02:28:47;;;;;;;5.72;4.53;;;;;;;;;;5017191;28;20187;-88
2021/12/14 02:31:19;;;;;;;4.05;3.75;;;;;;;;;;5017524;28;20218;-88
2021/12/14 02:33:50;;;;;;;5.53;5.03;;;;;;;;;;5017514;28;20183;-88
2021/12/14 02:36:25;;;;;;;5.22;4.72;;;;;;;;;;5016707;28;20223;-87
2021/12/14 02:39:06;;;;;;;5.05;4.35;;;;;;;;;;5016931;28;20209;-88
2021/12/14 02:41:44;;;;;;;5.53;5.03;;;;;;;;;;5019242;28;20191;-88
2021/12/14 02:44:12;;;;;;;4.30;3.90;;;;;;;;;;5022443;28;20179;-88
2021/12/14 02:46:43;;;;;;;5.18;4.68;;;;;;;;;;5038252;28;20215;-85
2021/12/14 02:49:16;;;;;;;5.53;5.03;;;;;;;;;;5036492;28;20189;-86
2021/12/14 02:51:49;;;;;;;5.38;4.55;;;;;;;;;;5019864;28;20203;-85
2021/12/14 02:54:19;;;;;;;7.22;6.10;;;;;;;;;;5017451;28;20816;-87
2021/12/14 02:56:51;;;;;;;7.75;7.05;;;;;;;;;;5018130;28;20219;-87
2021/12/14 02:59:22;;;;;;;5.97;5.38;;;;;;;;;;5017658;28;20196;-86
2021/12/14 03:01:52;;;;;;;5.22;4.72;;;;;;;;;;5016810;28;20673;-87
2021/12/14 03:04:20;;;;;;;6.30;5.30;;;;;;;;;;5017848;28;20194;-87
2021/12/14 03:06:53;;;;;;;8.27;7.47;;;;;;;;;;5017386;28;20233;-88
2021/12/14 03:09:36;;;;;;;6.30;5.32;;;;;;;;;;5016787;28;20195;-88
2021/12/14 03:12:08;;;;;;;6.68;5.80;;;;;;;;;;5017114;28;20572;-86
2021/12/14 03:14:36;;;;;;;5.43;4.82;;;;;;;;;;5016723;28;20548;-86
2021/12/14 03:17:05;;;;;;;5.55;5.05;;;;;;;;;;5016928;28;20223;-88
2021/12/14 03:19:32;;;;;;;7.18;6.47;;;;;;;;;;5016464;28;20191;-87
2021/12/14 03:22:01;;;;;;;6.30;5.70;;;;;;;;;;5016755;28;20664;-86
2021/12/14 03:24:29;;;;;;;7.75;6.63;;;;;;;;;;5015855;28;20203;-89
2021/12/14 03:26:57;;;;;;;5.45;4.95;;;;;;;;;;5016606;28;20617;-84
2021/12/14 03:29:28;;;;;;;5.60;5.15;;;;;;;;;;5016025;28;20179;-87
2021/12/14 03:31:59;;;;;;;6.13;5.53;;;;;;;;;;5016591;28;20658;-87
2021/12/14 03:34:29;;;;;;;5.70;5.20;;;;;;;;;;5016274;28;20210;-86
2021/12/14 03:37:03;;;;;;;7.07;5.78;;;;;;;;;;5016264;28;20219;-86
2021/12/14 03:39:35;;;;;;;6.03;5.43;;;;;;;;;;5016445;28;20565;-87
2021/12/14 03:42:08;;;;;;;5.88;5.35;;;;;;;;;;5016432;28;20191;-85
2021/12/14 03:44:40;;;;;;;5.38;4.88;;;;;;;;;;5016149;28;20190;-85
2021/12/14 03:47:11;;;;;;;5.43;4.93;;;;;;;;;;5015274;28;20273;-87
2021/12/14 03:49:43;;;;;;;4.80;4.40;;;;;;;;;;5016272;28;20184;-87
2021/12/14 03:52:16;;;;;;;7.03;6.40;;;;;;;;;;5015490;28;20187;-86
2021/12/14 03:54:44;;;;;;;6.30;5.70;;;;;;;;;;5016067;28;20648;-87
2021/12/14 03:57:12;;;;;;;8.00;7.30;;;;;;;;;;5015828;28;20219;-85
2021/12/14 03:59:40;;;;;;;6.15;5.55;;;;;;;;;;5015502;28;20668;-87
2021/12/14 04:02:11;;;;;;;7.30;5.80;;;;;;;;;;5014957;28;20197;-87
2021/12/14 04:04:43;;;;;;;7.40;6.80;;;;;;;;;;5014976;28;20190;-86
2021/12/14 04:07:15;;;;;;;7.40;6.60;;;;;;;;;;5013747;28;20230;-86
2021/12/14 04:09:43;;;;;;;6.63;6.03;;;;;;;;;;5015689;28;20209;-89
2021/12/14 04:12:17;;;;;;;6.50;5.78;;;;;;;;;;5017939;28;20630;-87
2021/12/14 04:14:48;;;;;;;6.55;5.90;;;;;;;;;;5017328;28;20242;-88
2021/12/14 04:17:17;;;;;;;6.50;5.90;;;;;;;;;;5017975;28;20222;-89
2021/12/14 04:19:45;;;;;;;6.30;4.88;;;;;;;;;;5018041;28;20195;-89
2021/12/14 04:22:17;;;;;;;6.53;5.93;;;;;;;;;;5017775;28;20180;-89
2021/12/14 04:24:47;;;;;;;6.72;6.13;;;;;;;;;;5016514;28;20214;-86
2021/12/14 04:27:19;;;;;;;6.13;5.53;;;;;;;;;;5014809;28;20227;-86
2021/12/14 04:29:47;;;;;;;6.68;5.95;;;;;;;;;;5014587;28;20206;-88
2021/12/14 04:32:16;;;;;;;7.00;6.30;;;;;;;;;;5014402;28;20203;-87
2021/12/14 04:34:44;;;;;;;4.80;4.30;;;;;;;;;;5014255;28;20214;-87
2021/12/14 04:37:15;;;;;;;6.07;5.57;;;;;;;;;;5014163;28;20226;-86
2021/12/14 04:39:47;;;;;;;6.07;5.57;;;;;;;;;;5014615;28;20219;-86
2021/12/14 04:53:46;;;;;;;6.13;5.53;;;;;;;;;;4958331;29;20196;-85
2021/12/14 04:56:17;;;;;;;8.73;7.80;;;;;;;;;;4957241;29;20232;-84
2021/12/14 04:58:48;;;;;;;9.35;8.32;;;;;;;;;;4957126;29;20188;-84
2021/12/14 05:01:17;;;;;;;10.95;9.13;;;;;;;;;;4957131;29;20276;-85
2021/12/14 05:03:50;;;;;;;9.43;7.75;;;;;;;;;;4956761;28;20207;-84
2021/12/14 05:06:20;;;;;;;6.10;5.50;;;;;;;;;;4957796;29;20221;-84
2021/12/14 05:11:39;;;;;;;6.28;5.63;;;;;;;;;;4975029;28;20279;-86
2021/12/14 05:14:11;;;;;;;5.68;5.10;;;;;;;;;;4974718;28;20204;-84
2021/12/14 05:16:39;;;;;;;6.68;6.07;;;;;;;;;;4975300;28;20275;-84
2021/12/14 05:19:09;;;;;;;5.80;5.30;;;;;;;;;;4974678;28;20201;-83
2021/12/14 05:21:42;;;;;;;7.53;6.82;;;;;;;;;;4975229;28;20568;-84
2021/12/14 05:24:14;;;;;;;6.07;5.47;;;;;;;;;;4975437;28;20647;-84
2021/12/14 05:26:43;;;;;;;8.35;7.55;;;;;;;;;;4975135;28;20244;-85
2021/12/14 05:29:11;;;;;;;6.75;6.10;;;;;;;;;;4975785;28;20757;-84
2021/12/14 05:31:46;;;;;;;8.00;7.20;;;;;;;;;;4974657;28;20251;-83
2021/12/14 05:34:14;;;;;;;8.18;7.38;;;;;;;;;;4974601;28;20189;-85
2021/12/14 05:36:43;;;;;;;7.20;6.47;;;;;;;;;;4975938;28;20225;-84
2021/12/14 05:39:34;;;;;;;7.53;6.05;;;;;;;;;;4975507;28;20280;-84
2021/12/14 05:44:55;;;;;;;6.20;5.70;;;;;;;;;;4978343;28;20268;-85
2021/12/14 05:47:23;;;;;;;6.70;6.00;;;;;;;;;;4972647;28;20249;-84
2021/12/14 05:49:50;;;;;;;5.10;4.60;;;;;;;;;;4976295;28;20203;-85
2021/12/14 05:52:23;;;;;;;8.27;6.85;;;;;;;;;;4976558;28;20195;-86
2021/12/14 05:54:54;;;;;;;8.30;7.50;;;;;;;;;;4977234;28;20193;-85
2021/12/14 05:57:25;;;;;;;8.68;7.18;;;;;;;;;;4976333;28;20729;-85
2021/12/14 05:59:54;;;;;;;6.82;5.82;;;;;;;;;;4976985;28;20220;-85
2021/12/14 06:02:23;;;;;;;5.47;4.82;;;;;;;;;;4976733;28;20184;-85
2021/12/14 06:04:54;;;;;;;7.47;5.35;;;;;;;;;;4976864;28;20207;-86
2021/12/14 06:07:24;;;;;;;8.18;6.43;;;;;;;;;;4976357;28;20224;-86
2021/12/14 06:09:53;;;;;;;9.23;7.90;;;;;;;;;;4976582;28;20184;-84
2021/12/14 06:12:23;;;;;;;7.85;7.03;;;;;;;;;;4977575;28;20192;-85
2021/12/14 06:14:53;;;;;;;7.85;7.05;;;;;;;;;;4978560;28;20646;-84
2021/12/14 06:17:25;;;;;;;8.95;8.05;;;;;;;;;;4983018;28;20434;-84
2021/12/14 06:19:56;;;;;;;7.65;6.85;;;;;;;;;;4981967;28;20219;-85
2021/12/14 06:22:25;;;;;;;6.40;5.80;;;;;;;;;;4980232;28;20195;-84
2021/12/14 06:24:57;;;;;;;5.68;5.20;;;;;;;;;;4979846;28;20200;-85
2021/12/14 06:27:30;;;;;;;5.20;4.78;;;;;;;;;;4980057;28;20220;-84
2021/12/14 06:30:01;;;;;;;5.40;4.90;;;;;;;;;;4980872;28;20191;-84
2021/12/14 06:32:33;;;;;;;5.15;4.65;;;;;;;;;;4980534;28;20208;-84
2021/12/14 06:35:06;;;;;;;5.82;5.30;;;;;;;;;;4978940;28;20208;-84
2021/12/14 06:38:11;;;;;;;5.32;4.35;;;;;;;;;;4980593;28;20226;-85
2021/12/14 06:40:45;;;;;;;4.32;3.92;;;;;;;;;;4980924;28;20231;-85
2021/12/14 06:43:16;;;;;;;4.15;3.85;;;;;;;;;;4981541;28;20200;-84
2021/12/14 06:45:46;;;;;;;4.95;4.45;;;;;;;;;;4977835;28;20207;-85
2021/12/14 06:48:20;;;;;;;4.15;3.75;;;;;;;;;;4968142;28;20241;-85
2021/12/14 06:50:53;;;;;;;4.05;3.70;;;;;;;;;;4961694;29;20204;-85
2021/12/14 06:53:21;;;;;;;7.53;6.82;;;;;;;;;;4962429;28;20671;-85
2021/12/14 06:55:57;;;;;;;5.03;4.53;;;;;;;;;;4961083;29;20632;-84
2021/12/14 06:58:28;;;;;;;4.82;4.32;;;;;;;;;;4961212;29;20185;-85
2021/12/14 07:01:06;;;;;;;4.28;3.95;;;;;;;;;;4960116;29;20212;-85
2021/12/14 07:03:46;;;;;;;3.70;3.40;;;;;;;;;;4958994;29;20662;-85
2021/12/14 07:06:27;;;;;;;4.50;4.07;;;;;;;;;;4958952;29;20224;-85
2021/12/14 07:09:03;;;;;;;3.45;3.15;;;;;;;;;;4958609;29;20577;-85
2021/12/14 07:11:32;;;;;;;3.33;3.03;;;;;;;;;;4958833;29;20626;-85
2021/12/14 07:14:00;;;;;;;4.82;4.43;;;;;;;;;;4958797;28;20636;-85
2021/12/14 07:16:31;;;;;;;3.60;3.28;;;;;;;;;;4958140;29;20235;-84
2021/12/14 07:19:03;;;;;;;4.60;4.20;;;;;;;;;;4971315;28;20196;-86
2021/12/14 07:21:42;;;;;;;3.03;2.80;;;;;;;;;;4978622;28;20215;-87
2021/12/14 07:24:37;;;;;;;2.80;2.60;;;;;;;;;;4978641;28;20184;-84
2021/12/14 07:27:24;;;;;;;2.47;2.28;;;;;;;;;;4978399;28;20232;-85
2021/12/14 07:29:52;;;;;;;2.00;1.90;;;;;;;;;;4979094;28;20589;-86
2021/12/14 07:32:45;;;;;;;3.75;2.92;;;;;;;;;;4978756;28;20180;-84
2021/12/14 07:35:32;;;;;;;2.90;2.70;;;;;;;;;;4978233;28;20191;-84
2021/12/14 07:38:20;;;;;;;2.35;2.15;;;;;;;;;;4980007;28;20244;-84
2021/12/14 07:40:52;;;;;;;2.35;2.15;;;;;;;;;;4979445;28;20208;-82
2021/12/14 07:43:24;;;;;;;2.47;2.33;;;;;;;;;;4979672;28;20189;-85
2021/12/14 07:45:54;;;;;;;2.47;2.28;;;;;;;;;;4978379;28;20264;-84
2021/12/14 07:48:24;;;;;;;2.95;2.65;;;;;;;;;;4978746;28;20188;-85
2021/12/14 07:50:56;;;;;;;2.50;2.30;;;;;;;;;;4978858;28;20205;-85
2021/12/14 07:53:34;;;;;;;2.25;2.05;;;;;;;;;;4969898;28;20202;-85
2021/12/14 07:56:02;;;;;;;3.50;2.92;;;;;;;;;;4978328;28;20192;-85
2021/12/14 07:58:37;;;;;;;2.97;2.70;;;;;;;;;;4974323;28;20204;-85
2021/12/14 08:01:07;;;;;;;2.80;2.58;;;;;;;;;;4961880;28;20216;-85
2021/12/14 08:03:35;;;;;;;2.83;2.63;;;;;;;;;;4958896;29;20206;-84
2021/12/14 08:06:06;;;;;;;3.53;3.22;;;;;;;;;;4958643;29;20587;-84
2021/12/14 08:08:42;;;;;;;3.35;3.05;;;;;;;;;;4959140;29;20201;-83
2021/12/14 08:11:47;;;;;;;4.07;3.65;;;;;;;;;;4960988;28;20189;-83
2021/12/14 08:14:24;;;;;;;5.00;4.15;;;;;;;;;;4979280;28;20204;-83
2021/12/14 08:16:56;;;;;;;3.50;3.20;;;;;;;;;;4979308;28;20220;-83
2021/12/14 08:19:36;;;;;;;4.30;3.90;;;;;;;;;;4979274;28;20275;-83
2021/12/14 08:22:10;;;;;;;4.15;3.75;;;;;;;;;;4978681;28;20215;-83
2021/12/14 08:24:39;;;;;;;3.45;3.15;;;;;;;;;;4979011;28;20192;-83
2021/12/14 08:27:09;;;;;;;2.50;2.30;;;;;;;;;;4978498;28;20221;-83
2021/12/14 08:29:38;;;;;;;2.20;2.00;;;;;;;;;;4978661;28;20217;-83
2021/12/14 08:32:12;;;;;;;2.50;2.30;;;;;;;;;;4978996;28;20215;-84
2021/12/14 08:34:44;;;;;;;1.90;1.80;;;;;;;;;;4978292;28;20200;-84
2021/12/14 08:37:19;;;;;;;2.42;2.22;;;;;;;;;;4977996;28;20223;-83
2021/12/14 08:39:49;;;;;;;2.50;2.30;;;;;;;;;;4978805;28;20199;-83
2021/12/14 08:42:25;;;;;;;2.67;2.47;;;;;;;;;;4978717;28;20195;-83
2021/12/14 08:45:00;;;;;;;2.97;2.78;;;;;;;;;;4960367;29;20208;-84
2021/12/14 08:47:34;;;;;;;3.85;3.53;;;;;;;;;;4969025;28;20236;-84
2021/12/14 08:50:07;;;;;;;3.03;2.78;;;;;;;;;;4980186;28;20213;-82
2021/12/14 08:52:35;;;;;;;3.90;3.50;;;;;;;;;;4980103;28;20199;-83
2021/12/14 08:55:08;;;;;;;3.30;3.03;;;;;;;;;;4978696;28;20199;-83
2021/12/14 08:57:37;;;;;;;3.78;3.47;;;;;;;;;;4979207;28;20594;-81
2021/12/14 09:00:15;;;;;;;2.80;2.60;;;;;;;;;;4978602;28;20195;-83
2021/12/14 09:02:45;;;;;;;2.67;2.47;;;;;;;;;;4977762;28;20575;-82
2021/12/14 09:05:16;;;;;;;2.33;2.13;;;;;;;;;;4977933;28;20201;-82
2021/12/14 09:07:45;;;;;;;3.00;2.70;;;;;;;;;;4977673;28;20702;-81
2021/12/14 09:10:24;;;;;;;3.10;2.80;;;;;;;;;;4977853;28;20228;-83
2021/12/14 09:12:55;;;;;;;2.97;2.67;;;;;;;;;;4977253;28;20196;-82
2021/12/14 09:15:29;;;;;;;1.67;1.58;;;;;;;;;;4977135;28;20204;-80
2021/12/14 09:17:58;;;;;;;2.30;2.08;;;;;;;;;;4977450;28;20224;-81
2021/12/14 09:20:30;;;;;;;2.17;1.98;;;;;;;;;;4977758;28;20691;-81
2021/12/14 09:23:03;;;;;;;1.88;1.77;;;;;;;;;;4977331;28;20216;-81
2021/12/14 09:25:31;;;;;;;1.50;1.40;;;;;;;;;;4977939;28;20195;-82
2021/12/14 09:28:03;;;;;;;2.50;2.30;;;;;;;;;;4977953;28;20235;-81
2021/12/14 09:30:37;;;;;;;2.47;2.28;;;;;;;;;;4977994;28;20204;-81
2021/12/14 09:33:05;;;;;;;1.83;1.73;;;;;;;;;;4976832;28;20204;-81
2021/12/14 09:35:35;;;;;;;2.42;1.95;;;;;;;;;;4977554;28;20273;-81
2021/12/14 09:38:05;;;;;;;2.45;2.25;;;;;;;;;;4977713;28;20360;-82
2021/12/14 09:40:42;;;;;;;2.00;1.90;;;;;;;;;;4977072;28;20710;-82
2021/12/14 09:43:10;;;;;;;2.33;2.13;;;;;;;;;;4977461;28;20192;-81
2021/12/14 09:45:44;;;;;;;1.80;1.70;;;;;;;;;;4977144;28;20196;-82
2021/12/14 09:48:14;;;;;;;2.15;1.95;;;;;;;;;;4977609;28;20259;-82
2021/12/14 09:50:44;;;;;;;3.15;2.95;;;;;;;;;;4977293;28;20200;-82
2021/12/14 09:53:17;;;;;;;2.63;2.42;;;;;;;;;;4977497;28;20200;-83
2021/12/14 09:55:47;;;;;;;2.33;2.13;;;;;;;;;;4978066;28;20196;-82
2021/12/14 09:58:20;;;;;;;2.30;2.10;;;;;;;;;;4977331;28;20196;-82
2021/12/14 10:00:52;;;;;;;2.33;2.20;;;;;;;;;;4977526;28;20572;-81
2021/12/14 10:03:20;;;;;;;2.50;2.30;;;;;;;;;;4977740;28;20212;-81
2021/12/14 10:05:53;;;;;;;2.67;2.47;;;;;;;;;;4977712;28;20830;-82
2021/12/14 10:08:25;;;;;;;2.97;2.78;;;;;;;;;;4977994;28;20180;-82
2021/12/14 10:10:58;;;;;;;2.67;2.47;;;;;;;;;;4977867;28;20204;-82
2021/12/14 10:13:26;;;;;;;3.13;2.85;;;;;;;;;;4977750;28;20653;-82
2021/12/14 10:15:56;;;;;;;2.58;2.38;;;;;;;;;;4976724;28;20196;-83
2021/12/14 10:18:29;;;;;;;2.08;1.98;;;;;;;;;;4979781;28;20203;-82
2021/12/14 10:21:01;;;;;;;2.35;2.15;;;;;;;;;;4995463;28;20215;-82
2021/12/14 10:23:31;;;;;;;1.80;1.70;;;;;;;;;;4997424;28;20233;-81
2021/12/14 10:26:01;;;;;;;1.65;1.55;;;;;;;;;;4996540;28;20660;-82
2021/12/14 10:28:33;;;;;;;2.60;2.33;;;;;;;;;;4979133;28;20591;-81
2021/12/14 10:31:06;;;;;;;1.90;1.80;;;;;;;;;;4976586;28;20224;-81
2021/12/14 10:33:35;;;;;;;3.03;2.80;;;;;;;;;;4977420;28;20181;-83
2021/12/14 10:36:20;;;;;;;2.33;2.20;;;;;;;;;;4976591;28;20192;-82
2021/12/14 10:39:05;;;;;;;4.05;3.63;;;;;;;;;;4976961;28;20303;-83
2021/12/14 10:44:18;;;;;;;3.17;2.88;;;;;;;;;;4977017;28;20689;-83
2021/12/14 10:46:51;;;;;;;3.92;3.50;;;;;;;;;;4977265;28;20255;-83
2021/12/14 10:49:24;;;;;;;4.47;3.78;;;;;;;;;;4977461;28;20193;-82
2021/12/14 10:51:57;;;;;;;4.68;3.67;;;;;;;;;;4976621;28;20240;-83
2021/12/14 10:54:26;;;;;;;3.72;3.42;;;;;;;;;;4996433;22;20235;-86
2021/12/14 10:56:57;;;;;;;3.30;3.00;;;;;;;;;;4993487;28;20630;-85
2021/12/14 10:59:30;;;;;;;3.88;3.40;;;;;;;;;;4993785;28;20227;-87
2021/12/14 11:01:59;;;;;;;4.15;3.78;;;;;;;;;;4993417;28;20627;-87
2021/12/14 11:04:38;;;;;;;3.60;3.22;;;;;;;;;;4996298;28;20222;-85
2021/12/14 11:07:09;;;;;;;2.70;2.50;;;;;;;;;;4996661;28;20283;-85
2021/12/14 11:09:42;;;;;;;2.65;2.45;;;;;;;;;;4996782;28;20196;-86
2021/12/14 11:12:20;;;;;;;2.28;2.08;;;;;;;;;;4996234;28;20238;-86
2021/12/14 11:14:51;;;;;;;3.35;2.75;;;;;;;;;;4996961;28;20219;-85
2021/12/14 11:20:21;;;;;;;2.40;2.20;;;;;;;;;;4998229;28;20246;-85
2021/12/14 11:22:55;;;;;;;2.10;2.00;;;;;;;;;;4997584;28;20183;-87
2021/12/14 11:25:27;;;;;;;3.63;3.30;;;;;;;;;;4998455;28;20307;-87
2021/12/14 11:28:00;;;;;;;3.17;2.90;;;;;;;;;;4997846;28;20694;-88
2021/12/14 11:30:31;;;;;;;2.92;2.42;;;;;;;;;;4998032;28;20271;-85
2021/12/14 11:33:10;;;;;;;3.13;2.83;;;;;;;;;;4997913;28;20188;-88
2021/12/14 11:35:40;;;;;;;3.03;2.83;;;;;;;;;;4998022;28;20227;-87
2021/12/14 11:38:34;;;;;;;3.20;2.90;;;;;;;;;;4998606;28;20196;-87
2021/12/14 11:41:21;;;;;;;4.28;3.88;;;;;;;;;;4998621;28;20661;-86
2021/12/14 11:43:52;;;;;;;3.75;3.45;;;;;;;;;;5001140;28;20203;-84
2021/12/14 11:46:20;;;;;;;4.65;4.28;;;;;;;;;;5015144;28;20202;-85
2021/12/14 11:48:49;;;;;;;3.47;3.17;;;;;;;;;;5020365;28;20188;-84
2021/12/14 11:51:16;;;;;;;3.15;2.85;;;;;;;;;;4998207;28;20207;-86
2021/12/14 11:53:50;;;;;;;4.57;4.05;;;;;;;;;;4996655;28;20188;-85
2021/12/14 11:56:23;;;;;;;4.32;3.92;;;;;;;;;;4995877;28;20235;-88
2021/12/14 11:58:54;;;;;;;2.90;2.70;;;;;;;;;;4996242;28;20211;-85
2021/12/14 12:01:30;;;;;;;4.65;4.05;;;;;;;;;;4995877;28;20195;-87
2021/12/14 12:04:01;;;;;;;4.60;4.20;;;;;;;;;;4995864;28;20198;-85
2021/12/14 12:09:31;;;;;;;4.10;3.70;;;;;;;;;;4963072;28;20648;-87
2021/12/14 12:12:12;;;;;;;4.22;3.83;;;;;;;;;;4995395;28;20223;-85
2021/12/14 12:14:43;;;;;;;4.80;4.40;;;;;;;;;;4995397;28;20588;-86
2021/12/14 12:17:19;;;;;;;5.32;4.55;;;;;;;;;;4995150;28;20187;-85
2021/12/14 12:20:08;;;;;;;5.60;4.90;;;;;;;;;;4995301;28;20650;-86
2021/12/14 12:22:41;;;;;;;4.93;4.53;;;;;;;;;;4995453;28;20192;-87
2021/12/14 12:25:11;;;;;;;3.50;3.20;;;;;;;;;;4995218;28;20227;-87
2021/12/14 12:27:46;;;;;;;3.45;3.15;;;;;;;;;;4994973;28;20208;-85
2021/12/14 12:30:46;;;;;;;5.07;4.68;;;;;;;;;;4995689;28;20238;-86
2021/12/14 12:33:25;;;;;;;4.30;3.90;;;;;;;;;;4994878;28;20259;-85
2021/12/14 12:36:03;;;;;;;4.85;4.38;;;;;;;;;;4995267;28;20224;-87
2021/12/14 12:38:42;;;;;;;4.32;3.92;;;;;;;;;;4995677;28;20187;-87
2021/12/14 12:41:24;;;;;;;3.42;3.13;;;;;;;;;;4994676;28;20200;-86
2021/12/14 12:43:59;;;;;;;3.15;2.85;;;;;;;;;;4994779;28;20551;-85
2021/12/14 12:46:34;;;;;;;4.38;3.38;;;;;;;;;;5001784;28;20195;-87
2021/12/14 12:49:18;;;;;;;4.22;3.90;;;;;;;;;;5014310;28;20183;-86
2021/12/14 12:52:10;;;;;;;3.13;2.92;;;;;;;;;;5014548;28;20219;-86
2021/12/14 12:54:58;;;;;;;2.47;2.28;;;;;;;;;;5011666;28;20223;-85
2021/12/14 12:57:33;;;;;;;2.72;2.53;;;;;;;;;;4995458;28;20196;-85
2021/12/14 13:00:15;;;;;;;2.65;2.45;;;;;;;;;;4994856;28;20366;-84
2021/12/14 13:02:46;;;;;;;3.63;3.33;;;;;;;;;;4995434;28;20227;-86
2021/12/14 13:05:27;;;;;;;3.47;3.17;;;;;;;;;;4995486;28;20598;-86
2021/12/14 13:08:05;;;;;;;2.95;2.75;;;;;;;;;;4996395;28;20183;-86
2021/12/14 13:10:43;;;;;;;3.47;3.17;;;;;;;;;;5014109;28;20199;-87
2021/12/14 13:13:15;;;;;;;4.60;4.20;;;;;;;;;;5008870;28;20225;-85
2021/12/14 13:15:56;;;;;;;5.35;4.85;;;;;;;;;;5011315;28;20218;-87
2021/12/14 13:18:37;;;;;;;3.53;3.20;;;;;;;;;;5009020;28;20729;-88
2021/12/14 13:21:17;;;;;;;4.13;3.72;;;;;;;;;;5004519;28;20203;-84
2021/12/14 13:23:58;;;;;;;3.85;3.55;;;;;;;;;;4997309;28;20191;-87
2021/12/14 13:26:53;;;;;;;3.88;3.58;;;;;;;;;;5015122;28;20194;-88
2021/12/14 13:29:47;;;;;;;3.58;3.28;;;;;;;;;;5012121;28;20201;-87
2021/12/14 13:32:21;;;;;;;2.53;2.33;;;;;;;;;;5016276;28;20222;-85
2021/12/14 13:34:57;;;;;;;4.50;4.10;;;;;;;;;;5015852;28;20249;-85
2021/12/14 13:37:27;;;;;;;3.63;3.33;;;;;;;;;;4998939;28;20211;-87
2021/12/14 13:39:57;;;;;;;2.58;2.38;;;;;;;;;;5017636;28;20267;-86
2021/12/14 13:42:53;;;;;;;2.80;2.60;;;;;;;;;;5014533;28;20656;-86
2021/12/14 13:45:24;;;;;;;2.92;2.72;;;;;;;;;;5013946;28;20222;-87
2021/12/14 13:47:53;;;;;;;3.67;3.38;;;;;;;;;;4995277;28;20238;-86
2021/12/14 13:50:27;;;;;;;3.08;2.88;;;;;;;;;;4994975;28;20561;-87
2021/12/14 13:52:55;;;;;;;3.80;3.45;;;;;;;;;;4994758;28;20226;-87
2021/12/14 13:55:32;;;;;;;3.80;3.50;;;;;;;;;;5010587;28;20238;-86
2021/12/14 13:58:05;;;;;;;3.05;2.85;;;;;;;;;;5014301;28;20557;-86
2021/12/14 14:00:43;;;;;;;3.40;3.10;;;;;;;;;;5013216;28;20195;-86
2021/12/14 14:03:11;;;;;;;4.57;3.75;;;;;;;;;;5006470;28;20192;-87
2021/12/14 14:05:39;;;;;;;3.58;3.28;;;;;;;;;;5005258;28;20222;-87
2021/12/14 14:08:11;;;;;;;3.58;3.28;;;;;;;;;;5007402;28;20206;-87
2021/12/14 14:10:41;;;;;;;2.90;2.70;;;;;;;;;;5013300;28;20184;-86
2021/12/14 14:13:13;;;;;;;3.10;2.90;;;;;;;;;;5013474;28;20551;-87
2021/12/14 14:15:43;;;;;;;4.15;3.83;;;;;;;;;;5012329;28;20238;-87
2021/12/14 14:18:14;;;;;;;3.08;2.78;;;;;;;;;;5013097;28;20198;-86
2021/12/14 14:20:49;;;;;;;2.20;2.00;;;;;;;;;;5012031;28;20187;-87
2021/12/14 14:23:23;;;;;;;1.80;1.70;;;;;;;;;;5012997;28;20198;-88
2021/12/14 14:25:59;;;;;;;1.95;1.80;;;;;;;;;;5012229;28;20221;-86
2021/12/14 14:28:41;;;;;;;1.60;1.50;;;;;;;;;;5011579;28;20664;-87
2021/12/14 14:31:14;;;;;;;1.95;1.77;;;;;;;;;;5013240;28;20554;-87
2021/12/14 14:33:53;;;;;;;2.10;2.00;;;;;;;;;;5013174;28;20211;-86
2021/12/14 14:36:34;;;;;;;2.20;2.00;;;;;;;;;;5012587;28;20248;-86
2021/12/14 14:39:15;;;;;;;2.85;2.65;;;;;;;;;;4998763;28;20199;-86
2021/12/14 14:41:48;;;;;;;3.22;2.92;;;;;;;;;;4997430;28;20199;-87
2021/12/14 14:44:31;;;;;;;2.65;2.45;;;;;;;;;;4997542;28;20310;-85
2021/12/14 14:47:09;;;;;;;2.92;2.72;;;;;;;;;;5006198;28;20195;-87
2021/12/14 14:50:16;;;;;;;3.15;2.95;;;;;;;;;;5016447;28;20195;-85
2021/12/14 14:52:53;;;;;;;3.50;3.13;;;;;;;;;;5016582;28;20278;-87
2021/12/14 14:55:28;;;;;;;3.58;3.28;;;;;;;;;;5015993;28;20256;-86
2021/12/14 14:58:10;;;;;;;3.97;3.67;;;;;;;;;;5016364;28;20217;-87
2021/12/14 15:01:01;;;;;;;3.70;3.40;;;;;;;;;;5015884;28;20219;-86
2021/12/14 15:03:37;;;;;;;3.50;3.20;;;;;;;;;;5016701;28;20587;-85
2021/12/14 15:06:23;;;;;;;3.65;3.35;;;;;;;;;;5016787;28;20222;-86
2021/12/14 15:08:54;;;;;;;3.33;3.03;;;;;;;;;;5015927;28;20191;-86
2021/12/14 15:11:36;;;;;;;3.33;3.03;;;;;;;;;;5016261;28;20203;-85
2021/12/14 15:14:19;;;;;;;3.03;2.83;;;;;;;;;;5016247;28;20293;-86
2021/12/14 15:16:54;;;;;;;3.95;3.65;;;;;;;;;;5016234;28;20195;-86
2021/12/14 15:19:26;;;;;;;5.38;4.88;;;;;;;;;;5016108;28;20187;-86
2021/12/14 15:22:18;;;;;;;3.75;3.38;;;;;;;;;;5015611;28;20589;-87
2021/12/14 15:25:06;;;;;;;3.22;2.80;;;;;;;;;;5016180;28;20712;-86
2021/12/14 15:27:55;;;;;;;3.97;3.67;;;;;;;;;;5016176;28;20662;-86
2021/12/14 15:30:50;;;;;;;3.28;3.00;;;;;;;;;;5016707;28;20275;-87
2021/12/14 15:33:28;;;;;;;3.05;2.80;;;;;;;;;;5016393;28;20211;-87
2021/12/14 15:36:14;;;;;;;3.05;2.85;;;;;;;;;;5016493;28;20226;-86
2021/12/14 15:38:47;;;;;;;2.97;2.67;;;;;;;;;;5032858;28;20775;-85
2021/12/14 15:41:24;;;;;;;3.60;3.30;;;;;;;;;;5034106;28;20203;-86
2021/12/14 15:43:57;;;;;;;3.45;3.15;;;;;;;;;;5018467;28;20187;-87
2021/12/14 15:46:32;;;;;;;3.33;3.03;;;;;;;;;;5010316;28;20195;-87
2021/12/14 15:49:13;;;;;;;2.95;2.75;;;;;;;;;;5005874;28;20199;-88
2021/12/14 15:51:44;;;;;;;2.40;2.20;;;;;;;;;;5012947;28;20195;-86
2021/12/14 15:54:28;;;;;;;4.05;3.65;;;;;;;;;;5015204;28;20211;-87